createdAt,value
2022-10-07T00:02:16.661Z,14.38
2022-10-07T00:04:47.871Z,13.07
2022-10-07T00:07:17.905Z,13.10
2022-10-07T00:09:47.734Z,12.77
2022-10-07T00:12:17.580Z,12.20
2022-10-07T00:14:47.490Z,12.57
2022-10-07T00:17:17.414Z,11.40
2022-10-07T00:19:47.730Z,13.65
2022-10-07T00:22:17.673Z,11.77
2022-10-07T00:24:47.979Z,12.18
2022-10-07T00:27:17.794Z,12.48
2022-10-07T00:29:47.636Z,10.82
2022-10-07T00:32:17.463Z,7.53
2022-10-07T00:34:47.269Z,7.50
2022-10-07T00:37:17.261Z,8.63
2022-10-07T00:39:47.457Z,5.85
2022-10-07T00:42:17.372Z,6.28
2022-10-07T00:44:50.157Z,7.30
2022-10-07T00:47:20.506Z,10.70
2022-10-07T00:49:53.405Z,14.00
2022-10-07T00:52:25.814Z,11.88
2022-10-07T00:54:57.341Z,14.02
2022-10-07T00:57:28.899Z,12.20
2022-10-07T00:59:59.492Z,11.18
2022-10-07T01:02:29.645Z,9.13
2022-10-07T01:05:03.773Z,8.93
2022-10-07T01:07:33.966Z,9.63
2022-10-07T01:10:04.354Z,8.27
2022-10-07T01:12:37.442Z,8.68
2022-10-07T01:15:20.931Z,7.00
2022-10-07T01:17:55.909Z,6.68
2022-10-07T01:20:29.785Z,8.77
2022-10-07T01:23:08.889Z,9.68
2022-10-07T01:25:57.447Z,12.48
2022-10-07T01:28:37.074Z,11.05
2022-10-07T01:31:09.385Z,11.02
2022-10-07T01:33:40.819Z,8.75
2022-10-07T01:36:12.448Z,9.20
2022-10-07T01:38:45.732Z,9.15
2022-10-07T01:41:19.544Z,7.40
2022-10-07T01:43:50.692Z,6.70
2022-10-07T01:46:24.408Z,8.52
2022-10-07T01:48:55.159Z,9.30
2022-10-07T01:51:25.918Z,8.18
2022-10-07T01:53:58.603Z,11.85
2022-10-07T01:56:31.917Z,9.00
2022-10-07T01:59:07.247Z,7.72
2022-10-07T02:01:57.159Z,7.20
2022-10-07T02:04:41.250Z,8.45
2022-10-07T02:07:25.196Z,8.00
2022-10-07T02:10:15.133Z,6.97
2022-10-07T02:13:07.990Z,5.95
2022-10-07T02:15:51.683Z,7.43
2022-10-07T02:18:22.649Z,6.55
2022-10-07T02:20:57.632Z,7.53
2022-10-07T02:23:29.298Z,5.38
2022-10-07T02:26:00.647Z,6.05
2022-10-07T02:28:31.063Z,5.82
2022-10-07T02:31:04.817Z,6.25
2022-10-07T02:33:35.225Z,4.75
2022-10-07T02:36:07.584Z,4.65
2022-10-07T02:38:37.452Z,6.10
2022-10-07T02:41:33.397Z,3.30
2022-10-07T02:44:18.559Z,3.25
2022-10-07T02:46:51.650Z,3.60
2022-10-07T02:49:24.886Z,2.70
2022-10-07T02:52:00.106Z,2.72
2022-10-07T02:54:40.057Z,2.53
2022-10-07T02:57:10.866Z,2.72
2022-10-07T02:59:41.562Z,2.78
2022-10-07T03:02:15.830Z,3.42
2022-10-07T03:04:46.177Z,2.60
2022-10-07T03:07:16.022Z,2.70
2022-10-07T03:09:48.605Z,3.25
2022-10-07T03:12:18.516Z,2.92
2022-10-07T03:14:51.414Z,3.97
2022-10-07T03:17:21.393Z,7.05
2022-10-07T03:19:51.608Z,6.05
2022-10-07T03:22:22.274Z,6.57
2022-10-07T03:24:52.100Z,7.50
2022-10-07T03:27:22.022Z,8.00
2022-10-07T03:29:52.208Z,6.45
2022-10-07T03:32:22.100Z,7.50
2022-10-07T03:34:52.809Z,7.28
2022-10-07T03:37:23.412Z,5.40
2022-10-07T03:39:55.378Z,3.35
2022-10-07T03:42:25.867Z,2.67
2022-10-07T03:44:55.698Z,1.98
2022-10-07T03:47:25.540Z,1.70
2022-10-07T03:49:55.426Z,1.35
2022-10-07T03:52:25.703Z,1.33
2022-10-07T03:54:57.772Z,1.30
2022-10-07T03:57:59.314Z,2.00
2022-10-07T04:00:29.747Z,2.58
2022-10-07T04:02:59.717Z,1.20
2022-10-07T04:05:30.840Z,1.63
2022-10-07T04:08:00.703Z,1.55
2022-10-07T04:10:30.927Z,2.00
2022-10-07T04:13:00.948Z,2.33
2022-10-07T04:15:30.990Z,2.28
2022-10-07T04:18:00.943Z,2.25
2022-10-07T04:20:30.881Z,2.38
2022-10-07T04:23:00.790Z,1.40
2022-10-07T04:25:38.944Z,1.77
2022-10-07T04:28:33.783Z,3.05
2022-10-07T04:31:06.251Z,1.92
2022-10-07T04:33:36.653Z,2.90
2022-10-07T04:36:14.584Z,1.60
2022-10-07T04:38:52.879Z,1.65
2022-10-07T04:41:25.908Z,1.67
2022-10-07T04:43:59.345Z,1.65
2022-10-07T04:46:30.947Z,1.83
2022-10-07T04:49:27.973Z,1.50
2022-10-07T04:55:04.054Z,1.33
2022-10-07T04:57:46.098Z,1.88
2022-10-07T05:00:16.719Z,1.65
2022-10-07T05:02:52.508Z,1.05
2022-10-07T05:05:29.773Z,1.80
2022-10-07T05:08:02.909Z,3.35
2022-10-07T05:10:32.797Z,1.80
2022-10-07T05:13:08.542Z,2.75
2022-10-07T05:15:38.424Z,4.25
2022-10-07T05:18:08.841Z,1.40
2022-10-07T05:20:44.338Z,1.75
2022-10-07T05:23:15.260Z,2.00
2022-10-07T05:25:46.014Z,2.38
2022-10-07T05:28:16.949Z,1.58
2022-10-07T05:30:47.061Z,2.00
2022-10-07T05:33:16.995Z,2.58
2022-10-07T05:35:49.988Z,2.17
2022-10-07T05:38:20.006Z,2.22
2022-10-07T05:41:00.273Z,3.20
2022-10-07T05:43:58.808Z,2.08
2022-10-07T05:46:28.798Z,2.55
2022-10-07T05:49:29.647Z,3.90
2022-10-07T05:51:59.655Z,2.53
2022-10-07T05:54:29.629Z,2.50
2022-10-07T05:56:59.610Z,2.28
2022-10-07T05:59:29.503Z,1.60
2022-10-07T06:02:01.797Z,1.60
2022-10-07T06:04:31.843Z,1.67
2022-10-07T06:07:02.167Z,1.85
2022-10-07T06:09:50.161Z,1.50
2022-10-07T06:12:41.572Z,3.88
2022-10-07T06:15:29.306Z,3.65
2022-10-07T06:17:59.372Z,1.85
2022-10-07T06:20:29.555Z,2.67
2022-10-07T06:23:00.586Z,1.98
2022-10-07T06:25:30.642Z,3.42
2022-10-07T06:28:01.782Z,1.52
2022-10-07T06:30:32.667Z,2.00
2022-10-07T06:33:02.862Z,1.60
2022-10-07T06:35:33.962Z,2.85
2022-10-07T06:38:03.929Z,1.40
2022-10-07T06:40:33.788Z,1.40
2022-10-07T06:43:03.716Z,1.75
2022-10-07T06:45:34.569Z,1.63
2022-10-07T06:48:04.537Z,1.85
2022-10-07T06:50:34.438Z,2.10
2022-10-07T06:53:04.419Z,2.53
2022-10-07T06:55:39.324Z,2.03
2022-10-07T06:58:20.432Z,2.58
2022-10-07T07:00:59.862Z,1.30
2022-10-07T07:03:33.136Z,2.28
2022-10-07T07:06:04.124Z,1.63
2022-10-07T07:08:34.010Z,1.70
2022-10-07T07:11:29.613Z,1.63
2022-10-07T07:14:00.195Z,2.58
2022-10-07T07:16:30.348Z,1.55
2022-10-07T07:19:03.515Z,2.75
2022-10-07T07:21:35.235Z,1.80
2022-10-07T07:24:05.428Z,2.88
2022-10-07T07:26:38.024Z,2.35
2022-10-07T07:29:18.193Z,2.08
2022-10-07T07:31:48.126Z,2.13
2022-10-07T07:34:28.019Z,2.20
2022-10-07T07:37:12.939Z,1.67
2022-10-07T07:42:49.371Z,2.17
2022-10-07T07:48:50.219Z,1.60
2022-10-07T08:05:45.544Z,1.35
2022-10-07T08:08:23.633Z,1.85
2022-10-07T08:11:33.313Z,1.73
2022-10-07T08:14:04.878Z,1.52
2022-10-07T08:16:34.746Z,2.00
2022-10-07T08:19:07.483Z,1.52
2022-10-07T08:21:37.369Z,3.05
2022-10-07T08:24:09.837Z,1.80
2022-10-07T08:26:40.495Z,1.52
2022-10-07T08:29:10.964Z,2.13
2022-10-07T08:31:41.144Z,1.95
2022-10-07T08:34:15.913Z,1.42
2022-10-07T08:36:49.334Z,1.75
2022-10-07T08:39:19.582Z,1.73
2022-10-07T08:42:02.385Z,2.95
2022-10-07T08:44:44.665Z,2.60
2022-10-07T08:47:14.893Z,2.78
2022-10-07T08:49:45.007Z,2.80
2022-10-07T08:52:37.897Z,2.47
2022-10-07T08:55:27.890Z,3.28
2022-10-07T08:58:07.481Z,2.83
2022-10-07T09:00:43.557Z,3.90
2022-10-07T09:05:46.582Z,2.60
2022-10-07T09:08:29.025Z,3.75
2022-10-07T09:11:05.810Z,3.00
2022-10-07T09:13:39.006Z,2.80
2022-10-07T09:16:14.257Z,3.45
2022-10-07T09:18:55.638Z,4.03
2022-10-07T09:21:48.094Z,3.00
2022-10-07T09:24:21.044Z,2.42
2022-10-07T09:26:51.718Z,3.72
2022-10-07T09:29:24.467Z,2.63
2022-10-07T09:31:55.541Z,3.97
2022-10-07T09:34:26.719Z,4.20
2022-10-07T09:37:12.587Z,2.58
2022-10-07T09:39:43.157Z,2.10
2022-10-07T09:42:19.308Z,2.20
2022-10-07T09:47:23.926Z,2.40
2022-10-07T09:50:01.162Z,3.10
2022-10-07T09:52:34.697Z,1.80
2022-10-07T09:55:23.154Z,2.80
2022-10-07T09:58:03.358Z,2.70
2022-10-07T10:00:36.978Z,2.42
2022-10-07T10:03:09.372Z,2.20
2022-10-07T10:05:40.721Z,2.20
2022-10-07T10:08:31.087Z,1.98
2022-10-07T10:11:03.220Z,3.42
2022-10-07T10:13:37.708Z,3.15
2022-10-07T10:16:34.813Z,2.33
2022-10-07T10:27:38.282Z,1.70
2022-10-07T10:30:09.942Z,2.88
2022-10-07T10:32:43.343Z,2.28
2022-10-07T10:35:30.057Z,2.20
2022-10-07T10:40:39.062Z,3.03
2022-10-07T10:46:39.666Z,1.90
2022-10-07T10:49:37.898Z,1.77
2022-10-07T10:52:24.619Z,1.85
2022-10-07T10:54:57.910Z,1.48
2022-10-07T10:57:39.002Z,1.70
2022-10-07T11:00:29.081Z,1.55
2022-10-07T11:09:21.628Z,1.10
2022-10-07T11:11:12.585Z,1.60
2022-10-07T11:13:04.351Z,2.50
2022-10-07T11:15:44.475Z,2.35
2022-10-07T11:18:25.920Z,1.52
2022-10-07T11:20:56.143Z,1.83
2022-10-07T11:23:34.782Z,2.95
2022-10-07T11:58:20.328Z,2.35
2022-10-07T12:00:51.042Z,2.78
2022-10-07T12:03:21.397Z,2.40
2022-10-07T12:05:55.352Z,3.00
2022-10-07T12:08:33.197Z,3.03
2022-10-07T12:11:18.309Z,2.90
2022-10-07T12:13:50.580Z,3.22
2022-10-07T12:16:26.568Z,2.50
2022-10-07T12:21:26.183Z,3.38
2022-10-07T12:24:11.829Z,2.80
2022-10-07T12:26:44.442Z,3.43
2022-10-07T12:29:25.457Z,8.80
2022-10-07T12:31:55.912Z,2.80
2022-10-07T12:34:25.846Z,7.22
2022-10-07T12:36:55.751Z,2.63
2022-10-07T12:39:36.097Z,3.10
2022-10-07T12:42:08.823Z,2.50
2022-10-07T12:44:54.638Z,2.65
2022-10-07T12:47:27.359Z,2.25
2022-10-07T12:50:10.199Z,2.20
2022-10-07T12:53:03.930Z,2.35
2022-10-07T12:55:40.156Z,2.47
2022-10-07T12:58:48.631Z,1.95
2022-10-07T13:01:39.444Z,2.50
2022-10-07T13:04:27.548Z,1.90
2022-10-07T13:06:57.849Z,4.20
2022-10-07T13:09:27.798Z,1.63
2022-10-07T13:12:08.365Z,2.20
2022-10-07T13:14:41.318Z,3.15
2022-10-07T13:17:29.474Z,2.72
2022-10-07T13:20:20.481Z,2.50
2022-10-07T13:22:51.436Z,2.47
2022-10-07T13:25:22.927Z,3.40
2022-10-07T13:27:57.600Z,2.53
2022-10-07T13:30:38.917Z,2.70
2022-10-07T13:33:17.281Z,2.85
2022-10-07T13:35:47.169Z,2.63
2022-10-07T13:38:26.123Z,2.97
2022-10-07T13:41:42.142Z,2.38
2022-10-07T13:44:14.348Z,3.22
2022-10-07T13:46:51.295Z,4.10
2022-10-07T15:23:58.812Z,5.90
2022-10-07T15:26:28.719Z,5.60
2022-10-07T15:29:00.279Z,4.95
2022-10-07T15:31:31.714Z,5.15
2022-10-07T15:34:01.855Z,5.97
2022-10-07T15:39:53.504Z,6.97
2022-10-07T15:42:24.055Z,5.82
2022-10-07T15:44:54.526Z,5.30
2022-10-07T15:47:24.430Z,4.78
2022-10-07T15:49:54.335Z,5.03
2022-10-07T15:52:24.339Z,5.53
2022-10-07T15:54:56.014Z,5.78
2022-10-07T15:57:26.055Z,4.70
2022-10-07T15:59:56.284Z,5.40
2022-10-07T16:02:26.837Z,7.18
2022-10-07T16:04:56.799Z,6.75
2022-10-07T16:07:26.712Z,6.93
2022-10-07T16:12:39.080Z,9.30
2022-10-07T16:15:09.262Z,7.90
2022-10-07T16:17:39.170Z,9.10
2022-10-07T16:20:11.393Z,8.52
2022-10-07T16:22:41.600Z,9.13
2022-10-07T19:40:06.583Z,2.40
2022-10-07T19:42:38.073Z,1.50
2022-10-07T19:45:11.425Z,1.80
2022-10-07T19:47:41.299Z,2.20
2022-10-07T19:50:11.304Z,1.20
2022-10-07T19:52:41.202Z,2.55
2022-10-07T19:55:11.461Z,1.15
2022-10-07T19:57:41.571Z,1.20
2022-10-07T20:03:25.881Z,1.40
2022-10-07T20:05:55.800Z,1.58
2022-10-07T20:08:25.668Z,2.10
2022-10-07T20:10:56.007Z,1.30
2022-10-07T20:13:25.896Z,1.55
2022-10-07T20:15:58.987Z,2.08
2022-10-07T20:18:32.031Z,1.35
2022-10-07T20:21:02.791Z,1.17
2022-10-07T20:23:36.576Z,1.30
2022-10-07T20:26:10.455Z,1.30
2022-10-07T20:28:40.511Z,1.00
2022-10-07T20:31:11.952Z,1.40
2022-10-07T20:33:42.253Z,2.10
2022-10-07T20:36:13.199Z,1.17
2022-10-07T23:12:08.216Z,1.23
2022-10-07T23:14:38.628Z,1.48
2022-10-07T23:17:08.525Z,0.47
2022-10-07T23:19:39.954Z,2.65
2022-10-07T23:22:11.151Z,1.27
2022-10-07T23:24:42.014Z,0.90
2022-10-07T23:27:12.900Z,0.85
2022-10-07T23:29:43.193Z,2.35
2022-10-07T23:32:25.894Z,7.55
2022-10-07T23:34:55.811Z,1.52
2022-10-07T23:37:26.832Z,0.47
2022-10-07T23:39:56.738Z,0.68
2022-10-07T23:42:26.722Z,0.80
2022-10-07T23:44:57.036Z,1.13
2022-10-07T23:47:29.731Z,0.52
2022-10-07T23:50:00.275Z,0.70
2022-10-07T23:52:30.904Z,0.70
2022-10-07T23:55:00.803Z,0.95
2022-10-07T23:57:31.112Z,0.60
